createdAt,value
2018-07-25T00:00:12.767Z,19.19
2018-07-25T00:01:12.769Z,19.19
2018-07-25T00:02:12.837Z,19.17
2018-07-25T00:03:12.835Z,19.17
2018-07-25T00:04:12.864Z,19.16
2018-07-25T00:05:12.839Z,19.13
2018-07-25T00:06:12.766Z,19.12
2018-07-25T00:07:12.713Z,19.09
2018-07-25T00:08:12.750Z,19.08
2018-07-25T00:09:12.812Z,19.05
2018-07-25T00:10:12.815Z,19.03
2018-07-25T00:11:12.775Z,19.01
2018-07-25T00:12:12.849Z,18.99
2018-07-25T00:13:12.814Z,18.97
2018-07-25T00:14:12.789Z,18.95
2018-07-25T00:15:12.818Z,18.92
2018-07-25T00:16:12.771Z,18.90
2018-07-25T00:17:12.816Z,18.88
2018-07-25T00:18:12.757Z,18.86
2018-07-25T00:19:12.825Z,18.84
2018-07-25T00:20:12.848Z,18.83
2018-07-25T00:21:12.860Z,18.81
2018-07-25T00:22:12.844Z,18.79
2018-07-25T00:23:12.798Z,18.77
2018-07-25T00:24:12.856Z,18.76
2018-07-25T00:25:12.746Z,18.73
2018-07-25T00:26:12.723Z,18.73
2018-07-25T00:27:12.826Z,18.72
2018-07-25T00:28:12.853Z,18.69
2018-07-25T00:29:12.803Z,18.68
2018-07-25T00:30:12.727Z,18.65
2018-07-25T00:31:12.795Z,18.64
2018-07-25T00:32:12.807Z,18.65
2018-07-25T00:33:12.753Z,18.65
2018-07-25T00:34:12.753Z,18.62
2018-07-25T00:35:12.865Z,18.61
2018-07-25T00:36:12.761Z,18.58
2018-07-25T00:37:12.829Z,18.58
2018-07-25T00:38:12.792Z,18.54
2018-07-25T00:39:12.735Z,18.54
2018-07-25T00:40:12.833Z,18.52
2018-07-25T00:41:12.759Z,18.52
2018-07-25T00:42:12.843Z,18.48
2018-07-25T00:43:12.861Z,18.47
2018-07-25T00:44:12.805Z,18.44
2018-07-25T00:45:12.872Z,18.44
2018-07-25T00:46:12.761Z,18.40
2018-07-25T00:47:12.880Z,18.36
2018-07-25T00:48:12.840Z,18.34
2018-07-25T00:49:12.808Z,18.31
2018-07-25T00:50:12.840Z,18.29
2018-07-25T00:51:12.740Z,18.24
2018-07-25T00:52:12.878Z,18.24
2018-07-25T00:53:12.874Z,18.20
2018-07-25T00:54:12.852Z,18.17
2018-07-25T00:55:12.818Z,18.17
2018-07-25T00:56:12.883Z,18.14
2018-07-25T00:57:12.878Z,18.13
2018-07-25T00:58:12.873Z,18.12
2018-07-25T00:59:12.880Z,18.07
2018-07-25T01:00:12.847Z,18.06
2018-07-25T01:01:12.879Z,18.02
2018-07-25T01:02:12.823Z,18.02
2018-07-25T01:03:12.815Z,17.99
2018-07-25T01:04:12.800Z,17.99
2018-07-25T01:05:12.784Z,17.96
2018-07-25T01:06:12.787Z,17.95
2018-07-25T01:07:12.786Z,17.92
2018-07-25T01:08:12.784Z,17.92
2018-07-25T01:09:12.789Z,17.89
2018-07-25T01:10:12.853Z,17.88
2018-07-25T01:11:12.908Z,17.85
2018-07-25T01:12:12.863Z,17.83
2018-07-25T01:13:12.859Z,17.79
2018-07-25T01:14:12.744Z,17.75
2018-07-25T01:15:12.816Z,17.73
2018-07-25T01:16:12.862Z,17.72
2018-07-25T01:17:12.863Z,17.71
2018-07-25T01:18:12.790Z,17.69
2018-07-25T01:19:12.859Z,17.69
2018-07-25T01:20:12.799Z,17.68
2018-07-25T01:21:12.863Z,17.64
2018-07-25T01:22:12.801Z,17.62
2018-07-25T01:23:12.862Z,17.60
2018-07-25T01:24:12.867Z,17.57
2018-07-25T01:25:12.791Z,17.55
2018-07-25T01:26:12.835Z,17.55
2018-07-25T01:27:12.770Z,17.51
2018-07-25T01:28:12.832Z,17.51
2018-07-25T01:29:12.839Z,17.53
2018-07-25T01:30:12.902Z,17.51
2018-07-25T01:31:12.843Z,17.50
2018-07-25T01:32:12.836Z,17.47
2018-07-25T01:33:12.913Z,17.47
2018-07-25T01:34:12.790Z,17.46
2018-07-25T01:35:12.812Z,17.43
2018-07-25T01:36:12.965Z,17.40
2018-07-25T01:37:12.899Z,17.40
2018-07-25T01:38:12.777Z,17.36
2018-07-25T01:39:12.813Z,17.37
2018-07-25T01:40:12.778Z,17.40
2018-07-25T01:41:12.879Z,17.37
2018-07-25T01:42:12.904Z,17.35
2018-07-25T01:43:12.816Z,17.33
2018-07-25T01:44:12.880Z,17.32
2018-07-25T01:45:12.813Z,17.31
2018-07-25T01:46:12.838Z,17.29
2018-07-25T01:47:12.812Z,17.26
2018-07-25T01:48:12.813Z,17.26
2018-07-25T01:49:12.887Z,17.24
2018-07-25T01:50:12.883Z,17.31
2018-07-25T01:51:12.820Z,17.31
2018-07-25T01:52:12.818Z,17.25
2018-07-25T01:53:12.901Z,17.26
2018-07-25T01:54:12.889Z,17.24
2018-07-25T01:55:12.837Z,17.22
2018-07-25T01:56:12.911Z,17.21
2018-07-25T01:57:12.783Z,17.18
2018-07-25T01:58:12.851Z,17.16
2018-07-25T01:59:12.895Z,17.14
2018-07-25T02:00:12.864Z,17.13
2018-07-25T02:01:12.923Z,17.12
2018-07-25T02:02:12.923Z,17.09
2018-07-25T02:03:12.894Z,17.09
2018-07-25T02:04:12.890Z,17.08
2018-07-25T02:05:12.812Z,17.10
2018-07-25T02:06:12.924Z,17.08
2018-07-25T02:07:12.861Z,17.03
2018-07-25T02:08:12.915Z,17.05
2018-07-25T02:09:12.889Z,16.99
2018-07-25T02:10:12.872Z,16.99
2018-07-25T02:11:12.928Z,16.95
2018-07-25T02:12:12.941Z,16.94
2018-07-25T02:13:12.937Z,16.92
2018-07-25T02:14:12.805Z,16.92
2018-07-25T02:15:12.862Z,16.90
2018-07-25T02:16:12.932Z,16.85
2018-07-25T02:17:12.935Z,16.84
2018-07-25T02:18:12.805Z,16.84
2018-07-25T02:19:12.839Z,16.83
2018-07-25T02:20:12.927Z,16.83
2018-07-25T02:21:12.941Z,16.83
2018-07-25T02:22:12.832Z,16.81
2018-07-25T02:23:12.937Z,16.80
2018-07-25T02:24:12.825Z,16.80
2018-07-25T02:25:12.896Z,16.77
2018-07-25T02:26:12.825Z,16.76
2018-07-25T02:27:12.781Z,16.74
2018-07-25T02:28:12.782Z,16.72
2018-07-25T02:29:12.817Z,16.69
2018-07-25T02:30:12.933Z,16.66
2018-07-25T02:31:12.788Z,16.63
2018-07-25T02:32:12.908Z,16.63
2018-07-25T02:33:12.815Z,16.62
2018-07-25T02:34:12.783Z,16.61
2018-07-25T02:35:12.910Z,16.59
2018-07-25T02:36:12.913Z,16.59
2018-07-25T02:37:12.914Z,16.58
2018-07-25T02:38:12.840Z,16.58
2018-07-25T02:39:12.915Z,16.57
2018-07-25T02:40:12.861Z,16.55
2018-07-25T02:41:12.875Z,16.55
2018-07-25T02:42:12.840Z,16.54
2018-07-25T02:43:12.916Z,16.52
2018-07-25T02:44:12.848Z,16.54
2018-07-25T02:45:12.790Z,16.52
2018-07-25T02:46:12.788Z,16.51
2018-07-25T02:47:12.875Z,16.52
2018-07-25T02:48:12.903Z,16.51
2018-07-25T02:49:12.796Z,16.50
2018-07-25T02:50:12.789Z,16.50
2018-07-25T02:51:12.876Z,16.47
2018-07-25T02:52:12.914Z,16.46
2018-07-25T02:53:12.887Z,16.46
2018-07-25T02:54:12.903Z,16.47
2018-07-25T02:55:12.965Z,16.44
2018-07-25T02:56:12.932Z,16.43
2018-07-25T02:57:12.865Z,16.39
2018-07-25T02:58:12.932Z,16.38
2018-07-25T02:59:12.862Z,16.36
2018-07-25T03:00:12.867Z,16.35
2018-07-25T03:01:12.868Z,16.32
2018-07-25T03:02:12.934Z,16.31
2018-07-25T03:03:12.936Z,16.29
2018-07-25T03:04:12.872Z,16.28
2018-07-25T03:05:12.964Z,16.25
2018-07-25T03:06:12.928Z,16.24
2018-07-25T03:07:12.931Z,16.24
2018-07-25T03:08:12.918Z,16.21
2018-07-25T03:09:12.936Z,16.21
2018-07-25T03:10:12.940Z,16.18
2018-07-25T03:11:12.908Z,16.18
2018-07-25T03:12:12.966Z,16.16
2018-07-25T03:13:12.844Z,16.14
2018-07-25T03:14:12.837Z,16.13
2018-07-25T03:15:12.970Z,16.14
2018-07-25T03:16:12.921Z,16.13
2018-07-25T03:17:12.929Z,16.13
2018-07-25T03:18:12.850Z,16.11
2018-07-25T03:19:12.950Z,16.13
2018-07-25T03:20:12.924Z,16.13
2018-07-25T03:21:12.925Z,16.13
2018-07-25T03:22:12.947Z,16.13
2018-07-25T03:23:12.985Z,16.13
2018-07-25T03:24:12.889Z,16.10
2018-07-25T03:25:12.878Z,16.11
2018-07-25T03:26:12.880Z,16.10
2018-07-25T03:27:12.885Z,16.10
2018-07-25T03:28:12.880Z,16.09
2018-07-25T03:29:12.950Z,16.07
2018-07-25T03:30:12.886Z,16.07
2018-07-25T03:31:13.027Z,16.07
2018-07-25T03:32:12.951Z,16.07
2018-07-25T03:33:12.955Z,16.07
2018-07-25T03:34:12.922Z,16.06
2018-07-25T03:35:12.955Z,16.05
2018-07-25T03:36:12.957Z,16.03
2018-07-25T03:37:12.852Z,16.05
2018-07-25T03:38:12.964Z,16.05
2018-07-25T03:39:12.889Z,16.05
2018-07-25T03:40:12.957Z,16.05
2018-07-25T03:41:12.890Z,16.06
2018-07-25T03:42:12.966Z,16.03
2018-07-25T03:43:12.890Z,16.03
2018-07-25T03:44:12.914Z,16.02
2018-07-25T03:45:12.877Z,16.00
2018-07-25T03:46:12.916Z,15.99
2018-07-25T03:47:12.964Z,15.95
2018-07-25T03:48:12.969Z,15.94
2018-07-25T03:49:12.981Z,15.95
2018-07-25T03:50:12.870Z,15.95
2018-07-25T03:51:12.921Z,15.95
2018-07-25T03:52:12.883Z,15.95
2018-07-25T03:53:12.989Z,15.99
2018-07-25T03:54:12.868Z,16.03
2018-07-25T03:55:12.985Z,16.02
2018-07-25T03:56:12.983Z,16.02
2018-07-25T03:57:12.942Z,16.05
2018-07-25T03:58:12.950Z,16.07
2018-07-25T03:59:12.873Z,16.09
2018-07-25T04:00:12.996Z,16.10
2018-07-25T04:01:13.005Z,16.13
2018-07-25T04:02:12.935Z,16.13
2018-07-25T04:03:12.934Z,16.14
2018-07-25T04:04:12.870Z,16.14
2018-07-25T04:05:13.009Z,16.14
2018-07-25T04:06:12.949Z,16.16
2018-07-25T04:07:12.988Z,16.17
2018-07-25T04:08:12.992Z,16.18
2018-07-25T04:09:12.945Z,16.21
2018-07-25T04:10:12.898Z,16.21
2018-07-25T04:11:12.937Z,16.22
2018-07-25T04:12:12.975Z,16.24
2018-07-25T04:13:12.992Z,16.25
2018-07-25T04:14:13.007Z,16.24
2018-07-25T04:15:13.008Z,16.27
2018-07-25T04:16:12.938Z,16.31
2018-07-25T04:17:12.945Z,16.33
2018-07-25T04:18:13.012Z,16.36
2018-07-25T04:19:12.923Z,16.38
2018-07-25T04:20:12.943Z,16.41
2018-07-25T04:21:12.942Z,16.41
2018-07-25T04:22:12.882Z,16.43
2018-07-25T04:23:12.943Z,16.44
2018-07-25T04:24:13.020Z,16.47
2018-07-25T04:25:12.980Z,16.52
2018-07-25T04:26:12.866Z,16.55
2018-07-25T04:27:12.973Z,16.61
2018-07-25T04:28:12.941Z,16.62
2018-07-25T04:29:12.945Z,16.62
2018-07-25T04:30:12.951Z,16.63
2018-07-25T04:31:12.986Z,16.63
2018-07-25T04:32:12.942Z,16.63
2018-07-25T04:33:12.898Z,16.68
2018-07-25T04:34:12.985Z,16.70
2018-07-25T04:35:12.911Z,16.73
2018-07-25T04:36:12.931Z,16.76
2018-07-25T04:37:12.995Z,16.76
2018-07-25T04:38:13.018Z,16.79
2018-07-25T04:39:13.009Z,16.81
2018-07-25T04:40:13.006Z,16.83
2018-07-25T04:41:12.926Z,16.87
2018-07-25T04:42:12.996Z,16.92
2018-07-25T04:43:13.009Z,16.94
2018-07-25T04:44:12.961Z,16.95
2018-07-25T04:45:12.934Z,16.98
2018-07-25T04:46:13.089Z,17.01
2018-07-25T04:47:12.939Z,17.02
2018-07-25T04:48:13.004Z,17.05
2018-07-25T04:49:12.932Z,17.13
2018-07-25T04:50:12.904Z,17.20
2018-07-25T04:51:12.934Z,17.25
2018-07-25T04:52:12.936Z,17.35
2018-07-25T04:53:12.935Z,17.40
2018-07-25T04:54:13.008Z,17.49
2018-07-25T04:55:12.967Z,17.55
2018-07-25T04:56:13.014Z,17.58
2018-07-25T04:57:13.008Z,17.64
2018-07-25T04:58:12.944Z,17.68
2018-07-25T04:59:12.998Z,17.71
2018-07-25T05:00:12.950Z,17.75
2018-07-25T05:01:13.029Z,17.77
2018-07-25T05:02:12.944Z,17.83
2018-07-25T05:03:13.018Z,17.88
2018-07-25T05:04:13.016Z,17.91
2018-07-25T05:05:12.943Z,17.98
2018-07-25T05:06:13.015Z,18.09
2018-07-25T05:07:13.054Z,18.16
2018-07-25T05:08:12.958Z,18.24
2018-07-25T05:09:13.020Z,18.34
2018-07-25T05:10:12.952Z,18.41
2018-07-25T05:11:13.055Z,18.47
2018-07-25T05:12:12.964Z,18.52
2018-07-25T05:13:12.956Z,18.58
2018-07-25T05:14:13.022Z,18.64
2018-07-25T05:15:13.005Z,18.70
2018-07-25T05:16:12.924Z,18.77
2018-07-25T05:17:12.920Z,18.84
2018-07-25T05:18:13.018Z,18.90
2018-07-25T05:19:13.013Z,18.97
2018-07-25T05:20:12.904Z,19.03
2018-07-25T05:21:12.969Z,19.09
2018-07-25T05:22:12.908Z,19.15
2018-07-25T05:23:13.032Z,19.20
2018-07-25T05:24:13.030Z,19.29
2018-07-25T05:25:12.959Z,19.35
2018-07-25T05:26:12.974Z,19.44
2018-07-25T05:27:13.031Z,19.50
2018-07-25T05:28:12.968Z,19.57
2018-07-25T05:29:12.977Z,19.62
2018-07-25T05:30:13.033Z,19.70
2018-07-25T05:31:12.965Z,19.79
2018-07-25T05:32:12.970Z,19.88
2018-07-25T05:33:13.034Z,19.96
2018-07-25T05:34:13.033Z,20.03
2018-07-25T05:35:12.966Z,20.10
2018-07-25T05:36:13.037Z,20.14
2018-07-25T05:37:13.035Z,20.18
2018-07-25T05:38:13.081Z,20.27
2018-07-25T05:39:12.970Z,20.38
2018-07-25T05:40:12.931Z,20.45
2018-07-25T05:41:12.994Z,20.53
2018-07-25T05:42:12.972Z,20.57
2018-07-25T05:43:13.046Z,20.61
2018-07-25T05:44:12.976Z,20.68
2018-07-25T05:45:13.000Z,20.70
2018-07-25T05:46:13.069Z,20.75
2018-07-25T05:47:13.137Z,20.83
2018-07-25T05:48:13.082Z,20.87
2018-07-25T05:49:13.016Z,20.95
2018-07-25T05:50:13.078Z,21.02
2018-07-25T05:51:13.070Z,21.09
2018-07-25T05:52:13.059Z,21.18
2018-07-25T05:53:12.948Z,21.29
2018-07-25T05:54:12.999Z,21.43
2018-07-25T05:55:13.048Z,21.62
2018-07-25T05:56:12.978Z,21.83
2018-07-25T05:57:12.953Z,22.01
2018-07-25T05:58:12.954Z,22.20
2018-07-25T05:59:13.032Z,22.45
2018-07-25T06:00:12.959Z,22.64
2018-07-25T06:01:12.955Z,22.90
2018-07-25T06:02:12.921Z,23.13
2018-07-25T06:03:13.107Z,23.35
2018-07-25T06:04:13.058Z,23.57
2018-07-25T06:05:12.994Z,23.65
2018-07-25T06:06:13.167Z,23.68
2018-07-25T06:07:12.989Z,23.86
2018-07-25T06:08:13.065Z,24.05
2018-07-25T06:09:12.992Z,24.20
2018-07-25T06:10:12.990Z,24.31
2018-07-25T06:11:13.058Z,24.40
2018-07-25T06:12:13.058Z,24.42
2018-07-25T06:13:13.092Z,24.45
2018-07-25T06:14:13.014Z,24.53
2018-07-25T06:15:12.999Z,24.61
2018-07-25T06:16:13.078Z,24.78
2018-07-25T06:17:13.032Z,24.86
2018-07-25T06:18:12.970Z,24.98
2018-07-25T06:19:13.087Z,24.82
2018-07-25T06:20:13.038Z,24.67
2018-07-25T06:21:13.120Z,24.56
2018-07-25T06:22:13.097Z,24.48
2018-07-25T06:23:13.047Z,24.51
2018-07-25T06:24:12.987Z,24.49
2018-07-25T06:25:13.040Z,24.56
2018-07-25T06:26:13.041Z,24.72
2018-07-25T06:27:12.997Z,24.83
2018-07-25T06:28:13.057Z,24.91
2018-07-25T06:29:12.978Z,24.95
2018-07-25T06:30:13.034Z,24.95
2018-07-25T06:31:13.037Z,25.00
2018-07-25T06:32:13.048Z,24.94
2018-07-25T06:33:13.036Z,25.05
2018-07-25T06:34:13.117Z,25.09
2018-07-25T06:35:13.056Z,25.11
2018-07-25T06:36:12.998Z,25.17
2018-07-25T06:37:13.035Z,25.35
2018-07-25T06:38:13.004Z,25.51
2018-07-25T06:39:12.939Z,25.52
2018-07-25T06:40:13.007Z,25.49
2018-07-25T06:41:13.067Z,25.53
2018-07-25T06:42:13.032Z,25.55
2018-07-25T06:43:13.018Z,25.67
2018-07-25T06:44:12.971Z,25.86
2018-07-25T06:45:13.079Z,25.91
2018-07-25T06:46:13.082Z,26.00
2018-07-25T06:47:13.018Z,26.24
2018-07-25T06:48:13.018Z,26.25
2018-07-25T06:49:13.120Z,26.32
2018-07-25T06:50:13.021Z,26.43
2018-07-25T06:51:13.108Z,26.49
2018-07-25T06:52:13.088Z,26.48
2018-07-25T06:53:13.143Z,26.60
2018-07-25T06:54:13.087Z,26.62
2018-07-25T06:55:13.110Z,26.72
2018-07-25T06:56:13.127Z,26.72
2018-07-25T06:57:13.117Z,26.86
2018-07-25T06:58:13.091Z,26.93
2018-07-25T06:59:13.028Z,26.96
2018-07-25T07:00:13.094Z,27.07
2018-07-25T07:01:13.093Z,27.30
2018-07-25T07:02:13.092Z,27.54
2018-07-25T07:03:13.093Z,27.50
2018-07-25T07:04:13.096Z,27.54
2018-07-25T07:05:13.031Z,27.65
2018-07-25T07:06:13.096Z,27.65
2018-07-25T07:07:13.040Z,27.58
2018-07-25T07:08:13.095Z,27.63
2018-07-25T07:09:13.066Z,27.84
2018-07-25T07:10:13.102Z,28.00
2018-07-25T07:11:13.038Z,28.24
2018-07-25T07:12:13.171Z,28.50
2018-07-25T07:13:13.046Z,28.75
2018-07-25T07:14:13.158Z,28.95
2018-07-25T07:15:13.114Z,28.98
2018-07-25T07:16:13.041Z,28.93
2018-07-25T07:17:13.095Z,28.91
2018-07-25T07:18:13.104Z,28.88
2018-07-25T07:19:13.129Z,28.83
2018-07-25T07:20:13.045Z,28.80
2018-07-25T07:21:13.114Z,28.72
2018-07-25T07:22:13.038Z,28.80
2018-07-25T07:23:12.983Z,28.79
2018-07-25T07:24:13.045Z,28.83
2018-07-25T07:25:12.985Z,29.06
2018-07-25T07:26:13.044Z,29.39
2018-07-25T07:27:13.043Z,29.31
2018-07-25T07:28:13.000Z,29.41
2018-07-25T07:29:13.019Z,29.59
2018-07-25T07:30:13.060Z,29.66
2018-07-25T07:31:13.020Z,29.69
2018-07-25T07:32:13.065Z,29.80
2018-07-25T07:33:13.023Z,29.97
2018-07-25T07:34:13.066Z,29.77
2018-07-25T07:35:13.178Z,29.58
2018-07-25T07:36:13.132Z,29.48
2018-07-25T07:37:13.067Z,29.46
2018-07-25T07:38:13.056Z,29.35
2018-07-25T07:39:13.114Z,29.59
2018-07-25T07:40:13.142Z,29.83
2018-07-25T07:41:13.195Z,30.03
2018-07-25T07:42:13.055Z,30.06
2018-07-25T07:43:13.153Z,30.02
2018-07-25T07:44:13.107Z,29.94
2018-07-25T07:45:13.033Z,29.90
2018-07-25T07:46:12.997Z,29.84
2018-07-25T07:47:12.994Z,29.90
2018-07-25T07:48:12.997Z,29.99
2018-07-25T07:49:13.112Z,29.94
2018-07-25T07:50:13.020Z,29.87
2018-07-25T07:51:13.054Z,29.92
2018-07-25T07:52:13.079Z,29.94
2018-07-25T07:53:13.059Z,30.09
2018-07-25T07:54:12.989Z,30.46
2018-07-25T07:55:13.018Z,30.61
2018-07-25T07:56:13.163Z,30.71
2018-07-25T07:57:13.153Z,30.75
2018-07-25T07:58:13.132Z,30.79
2018-07-25T07:59:13.038Z,30.93
2018-07-25T08:00:13.072Z,30.98
2018-07-25T08:01:13.103Z,30.95
2018-07-25T08:02:13.120Z,30.93
2018-07-25T08:03:13.118Z,31.13
2018-07-25T08:04:13.105Z,31.35
2018-07-25T08:05:13.113Z,31.41
2018-07-25T08:06:13.136Z,31.29
2018-07-25T08:07:13.092Z,31.48
2018-07-25T08:08:13.179Z,31.64
2018-07-25T08:09:13.112Z,31.41
2018-07-25T08:10:13.041Z,31.35
2018-07-25T08:11:13.067Z,31.30
2018-07-25T08:12:13.166Z,31.16
2018-07-25T08:13:13.122Z,31.00
2018-07-25T08:14:13.173Z,30.90
2018-07-25T08:15:13.104Z,31.13
2018-07-25T08:16:13.098Z,31.45
2018-07-25T08:17:13.161Z,31.73
2018-07-25T08:18:13.187Z,32.05
2018-07-25T08:19:13.152Z,32.16
2018-07-25T08:20:13.104Z,31.98
2018-07-25T08:21:13.282Z,31.77
2018-07-25T08:22:13.130Z,31.77
2018-07-25T08:23:13.169Z,31.70
2018-07-25T08:24:13.151Z,31.89
2018-07-25T08:25:13.173Z,32.05
2018-07-25T08:26:13.062Z,32.09
2018-07-25T08:27:13.139Z,32.19
2018-07-25T08:28:13.107Z,32.36
2018-07-25T08:29:13.062Z,32.66
2018-07-25T08:30:13.021Z,32.70
2018-07-25T08:31:13.147Z,32.55
2018-07-25T08:32:13.103Z,32.40
2018-07-25T08:33:13.033Z,32.38
2018-07-25T08:34:13.065Z,32.14
2018-07-25T08:35:13.145Z,32.16
2018-07-25T08:36:13.111Z,32.18
2018-07-25T08:37:13.091Z,32.07
2018-07-25T08:38:13.091Z,32.00
2018-07-25T08:39:13.032Z,31.97
2018-07-25T08:40:13.097Z,32.04
2018-07-25T08:41:13.048Z,32.22
2018-07-25T08:42:13.094Z,32.49
2018-07-25T08:43:13.031Z,32.77
2018-07-25T08:44:13.031Z,33.06
2018-07-25T08:45:13.162Z,33.37
2018-07-25T08:46:13.102Z,33.27
2018-07-25T08:47:13.133Z,33.44
2018-07-25T08:48:13.168Z,33.43
2018-07-25T08:49:13.104Z,33.36
2018-07-25T08:50:13.170Z,33.50
2018-07-25T08:51:13.117Z,33.62
2018-07-25T08:52:13.171Z,33.65
2018-07-25T08:53:13.117Z,33.74
2018-07-25T08:54:13.172Z,33.92
2018-07-25T08:55:13.106Z,34.06
2018-07-25T08:56:13.134Z,34.01
2018-07-25T08:57:13.138Z,33.98
2018-07-25T08:58:13.134Z,33.94
2018-07-25T08:59:13.132Z,33.94
2018-07-25T09:00:13.199Z,33.73
2018-07-25T09:01:13.134Z,33.46
2018-07-25T09:02:13.178Z,33.55
2018-07-25T09:03:13.114Z,33.59
2018-07-25T09:04:13.155Z,33.72
2018-07-25T09:05:13.112Z,33.95
2018-07-25T09:06:13.257Z,34.20
2018-07-25T09:07:13.181Z,34.24
2018-07-25T09:08:13.211Z,34.45
2018-07-25T09:09:13.183Z,34.71
2018-07-25T09:10:13.085Z,34.95
2018-07-25T09:11:13.200Z,35.22
2018-07-25T09:12:13.154Z,35.33
2018-07-25T09:13:13.225Z,35.49
2018-07-25T09:14:13.139Z,35.27
2018-07-25T09:15:13.154Z,35.13
2018-07-25T09:16:13.202Z,34.94
2018-07-25T09:17:13.174Z,35.04
2018-07-25T09:18:13.210Z,35.09
2018-07-25T09:19:13.119Z,34.63
2018-07-25T09:20:13.188Z,34.52
2018-07-25T09:21:13.123Z,34.47
2018-07-25T09:22:13.188Z,34.63
2018-07-25T09:23:13.125Z,34.71
2018-07-25T09:24:13.192Z,34.88
2018-07-25T09:25:13.189Z,34.90
2018-07-25T09:26:13.196Z,34.72
2018-07-25T09:27:13.121Z,34.95
2018-07-25T09:28:13.191Z,34.80
2018-07-25T09:29:13.129Z,35.05
2018-07-25T09:30:13.129Z,35.30
2018-07-25T09:31:13.193Z,35.46
2018-07-25T09:32:13.131Z,35.62
2018-07-25T09:33:13.196Z,35.78
2018-07-25T09:34:13.361Z,35.68
2018-07-25T09:35:13.199Z,35.71
2018-07-25T09:36:13.149Z,35.81
2018-07-25T09:37:13.104Z,35.53
2018-07-25T09:38:13.146Z,35.52
2018-07-25T09:39:13.099Z,35.71
2018-07-25T09:40:13.059Z,35.84
2018-07-25T09:41:13.153Z,35.84
2018-07-25T09:42:13.147Z,35.93
2018-07-25T09:43:13.108Z,36.06
2018-07-25T09:44:13.104Z,36.19
2018-07-25T09:45:13.067Z,35.99
2018-07-25T09:46:13.166Z,35.85
2018-07-25T09:47:13.231Z,35.75
2018-07-25T09:48:13.240Z,35.57
2018-07-25T09:49:13.147Z,35.49
2018-07-25T09:50:13.117Z,35.59
2018-07-25T09:51:13.175Z,35.71
2018-07-25T09:52:13.238Z,35.81
2018-07-25T09:53:13.195Z,35.82
2018-07-25T09:54:13.147Z,35.73
2018-07-25T09:55:13.179Z,35.38
2018-07-25T09:56:13.264Z,35.27
2018-07-25T09:57:13.250Z,35.26
2018-07-25T09:58:13.247Z,35.52
2018-07-25T09:59:13.206Z,35.81
2018-07-25T10:00:13.114Z,36.13
2018-07-25T10:01:13.216Z,36.24
2018-07-25T10:02:13.185Z,36.46
2018-07-25T10:03:13.217Z,36.41
2018-07-25T10:04:13.250Z,36.37
2018-07-25T10:05:13.157Z,36.40
2018-07-25T10:06:13.183Z,36.37
2018-07-25T10:07:13.356Z,36.36
2018-07-25T10:08:13.196Z,36.35
2018-07-25T10:09:13.169Z,36.22
2018-07-25T10:10:13.248Z,36.37
2018-07-25T10:11:13.156Z,36.69
2018-07-25T10:12:13.197Z,36.97
2018-07-25T10:13:13.144Z,36.41
2018-07-25T10:14:13.260Z,36.00
2018-07-25T10:15:13.313Z,36.10
2018-07-25T10:16:13.273Z,36.14
2018-07-25T10:17:13.184Z,36.25
2018-07-25T10:18:13.171Z,36.26
2018-07-25T10:19:13.159Z,36.33
2018-07-25T10:20:13.226Z,36.54
2018-07-25T10:21:13.196Z,36.91
2018-07-25T10:22:13.150Z,36.95
2018-07-25T10:23:13.213Z,36.72
2018-07-25T10:24:13.196Z,36.33
2018-07-25T10:25:13.157Z,36.22
2018-07-25T10:26:13.265Z,36.33
2018-07-25T10:27:13.218Z,36.44
2018-07-25T10:28:13.213Z,36.54
2018-07-25T10:29:13.234Z,36.77
2018-07-25T10:30:13.260Z,37.09
2018-07-25T10:31:13.258Z,37.35
2018-07-25T10:32:13.242Z,36.76
2018-07-25T10:33:13.230Z,36.40
2018-07-25T10:34:13.142Z,35.88
2018-07-25T10:35:13.249Z,35.70
2018-07-25T10:36:13.178Z,35.66
2018-07-25T10:37:13.265Z,35.39
2018-07-25T10:38:13.242Z,35.13
2018-07-25T10:39:13.175Z,34.70
2018-07-25T10:40:13.243Z,34.46
2018-07-25T10:41:13.209Z,34.03
2018-07-25T10:42:13.245Z,33.98
2018-07-25T10:43:13.183Z,33.87
2018-07-25T10:44:13.178Z,33.74
2018-07-25T10:45:13.247Z,33.65
2018-07-25T10:46:13.168Z,33.65
2018-07-25T10:47:13.285Z,33.44
2018-07-25T10:48:13.207Z,33.02
2018-07-25T10:49:13.277Z,32.82
2018-07-25T10:50:13.385Z,32.70
2018-07-25T10:51:13.231Z,32.69
2018-07-25T10:52:13.214Z,32.70
2018-07-25T10:53:13.253Z,32.69
2018-07-25T10:54:13.220Z,32.70
2018-07-25T10:55:13.282Z,32.58
2018-07-25T10:56:13.305Z,32.40
2018-07-25T10:57:13.154Z,32.40
2018-07-25T10:58:13.211Z,32.37
2018-07-25T10:59:13.294Z,32.29
2018-07-25T11:00:13.278Z,32.14
2018-07-25T11:01:13.219Z,32.14
2018-07-25T11:02:13.340Z,32.05
2018-07-25T11:03:13.241Z,32.18
2018-07-25T11:04:13.253Z,32.41
2018-07-25T11:05:13.293Z,32.80
2018-07-25T11:06:13.195Z,33.18
2018-07-25T11:07:13.162Z,33.40
2018-07-25T11:08:13.199Z,33.58
2018-07-25T11:09:13.268Z,33.76
2018-07-25T11:10:13.203Z,33.79
2018-07-25T11:11:13.263Z,33.68
2018-07-25T11:12:13.265Z,33.98
2018-07-25T11:13:13.200Z,34.24
2018-07-25T11:14:13.268Z,34.36
2018-07-25T11:15:13.275Z,34.20
2018-07-25T11:16:13.235Z,34.21
2018-07-25T11:17:13.225Z,34.31
2018-07-25T11:18:13.303Z,34.50
2018-07-25T11:19:13.288Z,34.39
2018-07-25T11:20:13.267Z,34.41
2018-07-25T11:21:13.303Z,34.56
2018-07-25T11:22:13.227Z,34.93
2018-07-25T11:23:13.391Z,35.20
2018-07-25T11:24:13.316Z,35.33
2018-07-25T11:25:13.231Z,35.63
2018-07-25T11:26:13.232Z,35.71
2018-07-25T11:27:13.249Z,36.06
2018-07-25T11:28:13.200Z,35.81
2018-07-25T11:29:13.256Z,35.42
2018-07-25T11:30:13.227Z,35.26
2018-07-25T11:31:13.174Z,35.22
2018-07-25T11:32:13.207Z,35.06
2018-07-25T11:33:13.216Z,35.15
2018-07-25T11:34:13.169Z,35.33
2018-07-25T11:35:13.214Z,35.35
2018-07-25T11:36:13.156Z,35.08
2018-07-25T11:37:13.153Z,35.11
2018-07-25T11:38:13.275Z,35.45
2018-07-25T11:39:13.182Z,35.78
2018-07-25T11:40:13.205Z,36.03
2018-07-25T11:41:13.217Z,36.21
2018-07-25T11:42:13.244Z,36.32
2018-07-25T11:43:13.195Z,36.59
2018-07-25T11:44:13.221Z,36.80
2018-07-25T11:45:13.156Z,36.46
2018-07-25T11:46:13.325Z,36.57
2018-07-25T11:47:13.259Z,36.13
2018-07-25T11:48:13.290Z,36.28
2018-07-25T11:49:13.231Z,36.03
2018-07-25T11:50:13.211Z,36.08
2018-07-25T11:51:13.324Z,35.79
2018-07-25T11:52:13.270Z,35.50
2018-07-25T11:53:13.244Z,35.78
2018-07-25T11:54:13.299Z,36.04
2018-07-25T11:55:13.235Z,35.93
2018-07-25T11:56:13.221Z,36.10
2018-07-25T11:57:13.264Z,36.35
2018-07-25T11:58:13.254Z,36.52
2018-07-25T11:59:13.220Z,36.80
2018-07-25T12:00:13.319Z,36.66
2018-07-25T12:01:13.531Z,36.25
2018-07-25T12:02:13.335Z,36.35
2018-07-25T12:03:13.265Z,36.57
2018-07-25T12:04:13.270Z,36.70
2018-07-25T12:05:13.271Z,36.80
2018-07-25T12:06:13.266Z,36.90
2018-07-25T12:07:13.330Z,36.51
2018-07-25T12:08:13.209Z,35.81
2018-07-25T12:09:13.266Z,36.03
2018-07-25T12:10:13.344Z,36.37
2018-07-25T12:11:13.268Z,36.61
2018-07-25T12:12:13.228Z,36.79
2018-07-25T12:13:13.345Z,37.09
2018-07-25T12:14:13.262Z,37.34
2018-07-25T12:15:13.329Z,37.57
2018-07-25T12:16:13.310Z,37.66
2018-07-25T12:17:13.241Z,37.27
2018-07-25T12:18:13.313Z,36.88
2018-07-25T12:19:13.280Z,36.62
2018-07-25T12:20:13.244Z,36.52
2018-07-25T12:21:13.274Z,35.99
2018-07-25T12:22:13.247Z,36.03
2018-07-25T12:23:13.312Z,36.44
2018-07-25T12:24:13.253Z,36.37
2018-07-25T12:25:13.314Z,36.68
2018-07-25T12:26:13.318Z,36.79
2018-07-25T12:27:13.350Z,36.94
2018-07-25T12:28:13.336Z,37.13
2018-07-25T12:29:13.350Z,37.16
2018-07-25T12:30:13.351Z,37.26
2018-07-25T12:31:13.278Z,37.54
2018-07-25T12:32:13.323Z,37.66
2018-07-25T12:33:13.342Z,37.82
2018-07-25T12:34:13.224Z,37.12
2018-07-25T12:35:13.325Z,36.98
2018-07-25T12:36:13.282Z,36.98
2018-07-25T12:37:13.305Z,37.09
2018-07-25T12:38:13.355Z,37.19
2018-07-25T12:39:13.358Z,37.49
2018-07-25T12:40:13.282Z,37.57
2018-07-25T12:41:13.326Z,37.87
2018-07-25T12:42:13.283Z,38.05
2018-07-25T12:43:13.307Z,38.13
2018-07-25T12:44:13.290Z,38.35
2018-07-25T12:45:13.328Z,38.49
2018-07-25T12:46:13.352Z,38.30
2018-07-25T12:47:13.357Z,38.09
2018-07-25T12:48:13.319Z,38.19
2018-07-25T12:49:13.362Z,38.09
2018-07-25T12:50:13.387Z,37.84
2018-07-25T12:51:13.330Z,38.01
2018-07-25T12:52:13.293Z,37.84